CST,Max TemperatureF,Mean TemperatureF,Min TemperatureF,Max Dew PointF,MeanDew PointF,Min DewpointF,Max Humidity, Mean Humidity, Min Humidity, Max Sea Level PressureIn, Mean Sea Level PressureIn, Min Sea Level PressureIn, Max VisibilityMiles, Mean VisibilityMiles, Min VisibilityMiles, Max Wind SpeedMPH, Mean Wind SpeedMPH, Max Gust SpeedMPH,PrecipitationIn, CloudCover, Events, WindDirDegrees
2013-1-1,37,32,27,37,35,25,100,98,86,30.21,30.11,30.04,10,6,1,14,7,18,0.01,8,,2
2013-1-2,32,28,24,26,24,21,99,88,64,30.30,30.25,30.19,10,10,9,10,6,,0.00,5,,356
2013-1-3,40,30,20,26,23,20,99,79,50,30.45,30.36,30.27,10,10,10,10,2,,0.00,0,,293
2013-1-4,44,32,21,28,24,21,97,74,43,30.49,30.43,30.40,10,10,10,13,3,,0.00,1,,246
2013-1-5,46,35,24,28,26,22,99,68,44,30.42,30.33,30.25,10,10,10,12,3,,0.00,4,,220
2013-1-6,44,34,24,37,31,22,95,79,58,30.42,30.27,30.19,10,10,10,17,9,24,0.00,3,,262
2013-1-7,42,31,20,28,25,20,100,82,55,30.49,30.38,30.26,10,10,8,8,3,,0.00,0,,67
2013-1-8,57,42,27,35,31,26,96,66,37,30.36,30.26,30.22,10,10,10,9,4,,0.00,1,,149
2013-1-9,54,50,46,52,47,36,100,93,67,30.44,30.37,30.26,10,9,3,8,4,,0.02,6,,75
2013-1-10,64,55,46,64,54,45,100,99,87,30.43,30.22,29.93,10,9,6,18,11,26,0.39,8,Rain,112
2013-1-11,68,62,56,65,58,50,100,92,52,30.03,29.95,29.89,10,8,1,26,16,33,1.18,6,Rain,213
2013-1-12,69,66,63,68,65,64,100,96,81,30.00,29.92,29.78,10,10,10,18,10,31,0.00,7,,169
2013-1-13,68,48,28,64,46,25,100,98,83,30.28,29.97,29.78,10,7,0,22,11,43,2.32,8,Fog-Rain-Thunderstorm,303
2013-1-14,29,26,24,27,23,21,95,85,73,30.44,30.36,30.29,10,10,10,16,11,17,0.00,5,,10
2013-1-15,32,28,23,32,28,23,100,95,86,30.32,30.18,30.05,10,10,7,15,10,,0.04,7,Rain,12
2013-1-16,32,31,30,32,30,29,100,96,87,30.16,30.12,30.06,10,10,7,6,4,,0.00,7,,319
2013-1-17,46,38,29,34,30,25,99,80,59,30.47,30.25,30.13,10,10,10,20,6,25,0.00,3,,347
2013-1-18,49,36,23,26,23,20,96,63,33,30.59,30.47,30.35,10,10,10,8,4,,0.00,0,,195
2013-1-19,56,45,34,31,27,25,72,49,29,30.35,30.22,30.11,10,10,10,23,12,29,0.00,0,,201
2013-1-20,46,37,28,34,24,16,87,58,33,30.29,30.22,30.15,10,10,10,12,7,,0.00,0,,328
2013-1-21,35,28,21,20,14,7,78,58,36,30.35,30.29,30.22,10,10,10,13,6,21,0.00,1,,321
2013-1-22,25,20,16,8,2,-2,65,43,32,30.48,30.41,30.35,10,10,10,12,7,,0.00,6,,353
2013-1-23,48,34,19,30,19,7,78,57,36,30.40,30.28,30.16,10,10,10,14,5,,0.00,0,,239
2013-1-24,34,28,23,29,12,2,80,51,33,30.55,30.42,30.25,10,10,10,16,12,20,0.00,2,,42
2013-1-25,32,30,27,32,25,5,100,88,34,30.26,30.18,30.11,10,8,2,12,6,,0.13,7,Rain,25
2013-1-26,42,33,24,33,27,25,100,94,57,30.37,30.30,30.26,10,4,0,8,1,,0.00,0,Fog,49
2013-1-27,49,38,27,46,37,27,100,95,70,30.36,30.28,30.17,10,9,3,10,6,,0.03,7,Rain,118
2013-1-28,62,56,50,57,52,38,100,89,59,30.18,30.15,30.09,10,9,4,18,11,24,0.22,7,Rain,183
2013-1-29,70,62,56,64,60,55,100,89,76,30.08,29.87,29.52,10,10,10,24,12,39,0.01,6,,178
2013-1-30,71,52,33,63,49,23,100,89,62,29.98,29.56,29.44,10,7,0,37,17,48,1.60,7,Fog-Rain-Snow-Thunderstorm,233
2013-1-31,43,34,24,34,26,18,100,77,43,30.30,30.12,29.94,10,8,1,23,16,32,0.04,7,Rain-Snow,285